Bismarck, ND

5:01 AM CST on February 01, 2015 (GMT -0600)
Mercer County Regional | Change Station
CLOSE
Current Station
Airport
Location: Hazen,
Elevation: 1814 ft
Nearby Weather Stations
Active Advisory: Wind Chill Advisory Active Notice: Local Storm Report

Elev 1814 ft 47.29 °N, 101.58 °W | Updated 26 minutes ago

Overcast
Overcast
-6 °F
Feels Like -21 °F
N
8
Wind Variable Wind from North

Today
High -- | Low -- °F
--% Chance of Precip.
Yesterday
High -- | Low -- °F
Precip. -- in
8:07 AM 5:46 PM
Waxing Gibbous, 94% visible
Pressure 30.50 in
Visibility 10.0 miles
Clouds Overcast 7000 ft
Windchill -21 °F
Dew Point -17 °F
Humidity 60%
Rainfall 0.10 in
Snow Depth Not available.
UV 0 out of 12
Pollen .10 out of 12
Air Quality Not available.
Flu Activity Not available.
METAR KHZE 011035Z AUTO 36007KT 10SM OVC070 M21/M27 A3050 RMK AO2

More Conditions Fewer Conditions

Pressure 30.50 in
Visibility 10.0 miles
Clouds Overcast 7000 ft
Windchill -21 °F
Dew Point -17 °F
Humidity 60%
Rainfall 0.10 in
Snow Depth Not available.
UV 0 out of 12
Pollen .10 out of 12
Air Quality Not available.
Flu Activity Not available.
METAR KHZE 011035Z AUTO 36007KT 10SM OVC070 M21/M27 A3050 RMK AO2

More Conditions Fewer Conditions

10-Day Weather Forecast

Almanac

Astronomy

Feb. 01, 2015 Rise Set
Actual Time
Civil Twilight
Nautical Twilight
Astronomical Twilight
Moon
Length of Visible Light
Length of Day
Tomorrow will be .
, % of the Moon is Illuminated

Today's Extremes

State Highs State Lows

Community

WunderPhotos

Upload Photos

1,792,345 photos uploaded!

WunderBlogs® & News

Nearby

Air Quality

  Air Quality AQ Index Pollutant
Not available.

Snow Depth

Station Depth Elevation

Earthquake Activity

City Distance Mag. Time & Date
Minimum magnitude displayed is 2.5.

Coastal Water Temperatures

Place Temperature

Nearby Weather Stations